sensor_id;sensor_type;location;lat;lon;timestamp;temperature;humidity
35680;DHT22;21803;53.586;10.040;2023-04-03T05:01:03;19.30;43.30
35680;DHT22;21803;53.586;10.040;2023-04-03T05:03:29;19.30;43.40
35680;DHT22;21803;53.586;10.040;2023-04-03T05:05:55;19.30;43.30
35680;DHT22;21803;53.586;10.040;2023-04-03T05:08:21;19.30;43.40
35680;DHT22;21803;53.586;10.040;2023-04-03T05:10:47;19.30;43.40
35680;DHT22;21803;53.586;10.040;2023-04-03T05:13:13;19.40;43.40
35680;DHT22;21803;53.586;10.040;2023-04-03T05:15:38;19.40;43.30
35680;DHT22;21803;53.586;10.040;2023-04-03T05:18:04;19.40;43.20
35680;DHT22;21803;53.586;10.040;2023-04-03T05:20:30;20.40;43.70
35680;DHT22;21803;53.586;10.040;2023-04-03T05:22:56;19.40;43.20
35680;DHT22;21803;53.586;10.040;2023-04-03T05:25:22;19.40;43.20
35680;DHT22;21803;53.586;10.040;2023-04-03T05:27:47;19.40;43.10
35680;DHT22;21803;53.586;10.040;2023-04-03T05:30:13;19.50;43.00
35680;DHT22;21803;53.586;10.040;2023-04-03T05:32:39;19.50;43.00
35680;DHT22;21803;53.586;10.040;2023-04-03T05:35:06;19.50;43.00
35680;DHT22;21803;53.586;10.040;2023-04-03T05:37:33;19.50;43.00
35680;DHT22;21803;53.586;10.040;2023-04-03T05:39:58;19.60;43.00
35680;DHT22;21803;53.586;10.040;2023-04-03T05:42:24;19.60;42.90
35680;DHT22;21803;53.586;10.040;2023-04-03T05:44:50;19.60;42.90
35680;DHT22;21803;53.586;10.040;2023-04-03T05:47:16;19.70;42.90
35680;DHT22;21803;53.586;10.040;2023-04-03T05:49:42;19.70;42.80
35680;DHT22;21803;53.586;10.040;2023-04-03T05:52:27;19.70;42.70
35680;DHT22;21803;53.586;10.040;2023-04-03T05:54:53;19.70;42.70
35680;DHT22;21803;53.586;10.040;2023-04-03T05:57:18;19.90;42.60
35680;DHT22;21803;53.586;10.040;2023-04-03T05:59:45;19.80;42.50
35680;DHT22;21803;53.586;10.040;2023-04-03T06:02:13;19.80;42.50
35680;DHT22;21803;53.586;10.040;2023-04-03T06:04:39;19.80;42.30
35680;DHT22;21803;53.586;10.040;2023-04-03T06:07:05;19.80;42.20
35680;DHT22;21803;53.586;10.040;2023-04-03T06:09:31;19.90;42.20
35680;DHT22;21803;53.586;10.040;2023-04-03T06:11:57;19.90;42.30
35680;DHT22;21803;53.586;10.040;2023-04-03T06:14:24;19.90;42.20
35680;DHT22;21803;53.586;10.040;2023-04-03T06:16:50;19.90;42.20
35680;DHT22;21803;53.586;10.040;2023-04-03T06:19:15;19.90;42.10
35680;DHT22;21803;53.586;10.040;2023-04-03T06:21:41;19.90;42.10
35680;DHT22;21803;53.586;10.040;2023-04-03T06:24:08;19.90;42.10
35680;DHT22;21803;53.586;10.040;2023-04-03T06:26:34;19.90;42.00
35680;DHT22;21803;53.586;10.040;2023-04-03T06:28:59;19.90;42.00
35680;DHT22;21803;53.586;10.040;2023-04-03T06:31:25;20.90;42.50
35680;DHT22;21803;53.586;10.040;2023-04-03T06:33:51;19.90;42.00
35680;DHT22;21803;53.586;10.040;2023-04-03T06:36:19;19.90;42.00
35680;DHT22;21803;53.586;10.040;2023-04-03T06:38:46;19.90;42.00
35680;DHT22;21803;53.586;10.040;2023-04-03T06:41:12;19.90;41.90
35680;DHT22;21803;53.586;10.040;2023-04-03T06:43:37;19.90;41.90
35680;DHT22;21803;53.586;10.040;2023-04-03T06:46:03;19.90;42.00
35680;DHT22;21803;53.586;10.040;2023-04-03T06:48:29;19.90;42.10
35680;DHT22;21803;53.586;10.040;2023-04-03T06:50:54;19.90;42.20
35680;DHT22;21803;53.586;10.040;2023-04-03T06:53:20;19.80;42.10
35680;DHT22;21803;53.586;10.040;2023-04-03T06:55:46;19.80;42.20
35680;DHT22;21803;53.586;10.040;2023-04-03T06:58:12;19.80;42.20
35680;DHT22;21803;53.586;10.040;2023-04-03T07:00:39;19.80;42.30
35680;DHT22;21803;53.586;10.040;2023-04-03T07:03:04;19.80;42.30
35680;DHT22;21803;53.586;10.040;2023-04-03T07:05:30;19.70;42.30
35680;DHT22;21803;53.586;10.040;2023-04-03T07:07:56;19.70;42.30
35680;DHT22;21803;53.586;10.040;2023-04-03T07:10:21;19.70;42.30
35680;DHT22;21803;53.586;10.040;2023-04-03T07:12:47;20.30;42.70
35680;DHT22;21803;53.586;10.040;2023-04-03T07:15:12;19.70;42.40
35680;DHT22;21803;53.586;10.040;2023-04-03T07:17:39;19.70;42.70
35680;DHT22;21803;53.586;10.040;2023-04-03T07:20:06;19.70;42.40
35680;DHT22;21803;53.586;10.040;2023-04-03T07:22:32;19.70;42.50
35680;DHT22;21803;53.586;10.040;2023-04-03T07:24:58;19.70;42.50
35680;DHT22;21803;53.586;10.040;2023-04-03T07:27:24;19.70;42.50
35680;DHT22;21803;53.586;10.040;2023-04-03T07:29:50;19.60;42.40
35680;DHT22;21803;53.586;10.040;2023-04-03T07:32:16;19.60;42.40
35680;DHT22;21803;53.586;10.040;2023-04-03T07:34:43;19.60;42.40
35680;DHT22;21803;53.586;10.040;2023-04-03T07:37:08;19.70;42.50
35680;DHT22;21803;53.586;10.040;2023-04-03T07:39:34;19.60;42.40
35680;DHT22;21803;53.586;10.040;2023-04-03T07:42:00;19.60;42.40
35680;DHT22;21803;53.586;10.040;2023-04-03T07:44:27;19.60;42.40
35680;DHT22;21803;53.586;10.040;2023-04-03T07:46:53;19.60;42.50
35680;DHT22;21803;53.586;10.040;2023-04-03T07:49:20;19.60;42.40
35680;DHT22;21803;53.586;10.040;2023-04-03T07:51:48;19.50;42.40
35680;DHT22;21803;53.586;10.040;2023-04-03T07:54:14;19.60;42.50
35680;DHT22;21803;53.586;10.040;2023-04-03T07:56:40;19.60;42.40
35680;DHT22;21803;53.586;10.040;2023-04-03T07:59:06;19.60;42.50
35680;DHT22;21803;53.586;10.040;2023-04-03T08:01:32;19.60;42.40
35680;DHT22;21803;53.586;10.040;2023-04-03T08:03:59;19.60;42.40
35680;DHT22;21803;53.586;10.040;2023-04-03T08:06:24;19.60;42.40
35680;DHT22;21803;53.586;10.040;2023-04-03T08:08:50;19.60;42.40
35680;DHT22;21803;53.586;10.040;2023-04-03T08:11:15;19.60;42.50
35680;DHT22;21803;53.586;10.040;2023-04-03T08:13:41;19.60;42.40
35680;DHT22;21803;53.586;10.040;2023-04-03T08:16:14;19.60;42.40
35680;DHT22;21803;53.586;10.040;2023-04-03T08:18:41;19.60;42.40
35680;DHT22;21803;53.586;10.040;2023-04-03T08:21:08;19.60;42.40
35680;DHT22;21803;53.586;10.040;2023-04-03T08:23:34;19.60;42.50
35680;DHT22;21803;53.586;10.040;2023-04-03T08:26:04;19.60;42.40
35680;DHT22;21803;53.586;10.040;2023-04-03T08:28:30;19.60;42.40
35680;DHT22;21803;53.586;10.040;2023-04-03T08:30:55;19.60;42.40
35680;DHT22;21803;53.586;10.040;2023-04-03T08:33:21;19.60;42.40
35680;DHT22;21803;53.586;10.040;2023-04-03T08:35:46;19.60;42.40
35680;DHT22;21803;53.586;10.040;2023-04-03T08:38:12;19.60;42.50
35680;DHT22;21803;53.586;10.040;2023-04-03T08:40:38;19.00;42.10
35680;DHT22;21803;53.586;10.040;2023-04-03T08:45:51;19.50;43.00
35680;DHT22;21803;53.586;10.040;2023-04-03T08:48:31;19.50;42.40
35680;DHT22;21803;53.586;10.040;2023-04-03T08:51:03;19.60;42.40
35680;DHT22;21803;53.586;10.040;2023-04-03T08:53:33;19.50;42.40
35680;DHT22;21803;53.586;10.040;2023-04-03T08:56:08;19.50;42.40
35680;DHT22;21803;53.586;10.040;2023-04-03T08:59:03;19.50;42.40
35680;DHT22;21803;53.586;10.040;2023-04-03T09:01:36;19.50;42.40
35680;DHT22;21803;53.586;10.040;2023-04-03T09:04:08;19.50;42.40
35680;DHT22;21803;53.586;10.040;2023-04-03T09:06:36;19.50;42.40
35680;DHT22;21803;53.586;10.040;2023-04-03T09:17:53;19.50;42.30
35680;DHT22;21803;53.586;10.040;2023-04-03T09:23:44;19.50;42.30
35680;DHT22;21803;53.586;10.040;2023-04-03T09:26:30;19.50;42.30
35680;DHT22;21803;53.586;10.040;2023-04-03T09:29:00;19.50;42.20
35680;DHT22;21803;53.586;10.040;2023-04-03T09:31:32;19.50;42.30
35680;DHT22;21803;53.586;10.040;2023-04-03T09:34:04;19.50;42.20
35680;DHT22;21803;53.586;10.040;2023-04-03T09:39:23;19.50;42.20
35680;DHT22;21803;53.586;10.040;2023-04-03T09:42:03;19.50;42.30
35680;DHT22;21803;53.586;10.040;2023-04-03T09:44:32;19.50;42.20
35680;DHT22;21803;53.586;10.040;2023-04-03T09:46:58;19.50;42.20
35680;DHT22;21803;53.586;10.040;2023-04-03T09:49:24;19.50;42.20
35680;DHT22;21803;53.586;10.040;2023-04-03T09:51:50;19.50;42.20
35680;DHT22;21803;53.586;10.040;2023-04-03T09:54:35;19.50;42.20
35680;DHT22;21803;53.586;10.040;2023-04-03T09:57:11;19.50;42.20
35680;DHT22;21803;53.586;10.040;2023-04-03T09:59:48;19.50;42.10
35680;DHT22;21803;53.586;10.040;2023-04-03T10:02:39;19.50;42.10
35680;DHT22;21803;53.586;10.040;2023-04-03T10:05:40;19.50;42.10
35680;DHT22;21803;53.586;10.040;2023-04-03T10:08:34;19.50;42.10
35680;DHT22;21803;53.586;10.040;2023-04-03T10:11:11;19.50;42.00
35680;DHT22;21803;53.586;10.040;2023-04-03T10:13:59;19.50;42.00
35680;DHT22;21803;53.586;10.040;2023-04-03T10:16:36;19.50;42.00
35680;DHT22;21803;53.586;10.040;2023-04-03T10:19:33;19.50;42.00
35680;DHT22;21803;53.586;10.040;2023-04-03T10:22:18;19.50;42.00
35680;DHT22;21803;53.586;10.040;2023-04-03T10:25:09;19.50;42.00
35680;DHT22;21803;53.586;10.040;2023-04-03T10:27:42;19.50;42.00
35680;DHT22;21803;53.586;10.040;2023-04-03T10:30:36;19.50;41.90
35680;DHT22;21803;53.586;10.040;2023-04-03T10:36:32;19.50;41.90
35680;DHT22;21803;53.586;10.040;2023-04-03T10:39:23;19.50;41.90
35680;DHT22;21803;53.586;10.040;2023-04-03T10:44:57;19.50;41.90
35680;DHT22;21803;53.586;10.040;2023-04-03T10:50:57;19.50;41.80
35680;DHT22;21803;53.586;10.040;2023-04-03T10:53:25;19.50;41.80
35680;DHT22;21803;53.586;10.040;2023-04-03T10:59:07;19.50;41.70
35680;DHT22;21803;53.586;10.040;2023-04-03T11:01:39;19.50;41.80
35680;DHT22;21803;53.586;10.040;2023-04-03T11:04:06;19.50;41.70
35680;DHT22;21803;53.586;10.040;2023-04-03T11:06:48;19.50;41.70
35680;DHT22;21803;53.586;10.040;2023-04-03T11:09:30;19.50;41.70
35680;DHT22;21803;53.586;10.040;2023-04-03T11:12:21;19.50;41.60
35680;DHT22;21803;53.586;10.040;2023-04-03T11:14:50;19.50;42.20
35680;DHT22;21803;53.586;10.040;2023-04-03T11:20:00;19.50;41.60
35680;DHT22;21803;53.586;10.040;2023-04-03T11:22:42;19.50;41.60
35680;DHT22;21803;53.586;10.040;2023-04-03T11:33:15;19.50;41.50
35680;DHT22;21803;53.586;10.040;2023-04-03T11:35:51;19.50;41.50
35680;DHT22;21803;53.586;10.040;2023-04-03T11:38:28;19.50;41.50
35680;DHT22;21803;53.586;10.040;2023-04-03T11:40:56;19.50;41.40
35680;DHT22;21803;53.586;10.040;2023-04-03T11:43:25;19.50;41.40
35680;DHT22;21803;53.586;10.040;2023-04-03T11:46:02;19.50;41.40
35680;DHT22;21803;53.586;10.040;2023-04-03T11:50:59;19.50;41.40
35680;DHT22;21803;53.586;10.040;2023-04-03T11:55:53;19.50;41.40
35680;DHT22;21803;53.586;10.040;2023-04-03T11:58:24;19.50;41.30
35680;DHT22;21803;53.586;10.040;2023-04-03T12:00:54;19.50;41.40
35680;DHT22;21803;53.586;10.040;2023-04-03T12:16:33;19.50;41.30
35680;DHT22;21803;53.586;10.040;2023-04-03T12:24:28;19.50;41.20
35680;DHT22;21803;53.586;10.040;2023-04-03T12:32:19;19.50;41.30
35680;DHT22;21803;53.586;10.040;2023-04-03T12:35:14;19.50;41.20
35680;DHT22;21803;53.586;10.040;2023-04-03T12:46:43;19.50;42.80
35680;DHT22;21803;53.586;10.040;2023-04-03T12:51:54;19.40;42.30
35680;DHT22;21803;53.586;10.040;2023-04-03T12:54:39;19.40;42.00
35680;DHT22;21803;53.586;10.040;2023-04-03T12:57:16;19.40;41.90
35680;DHT22;21803;53.586;10.040;2023-04-03T12:59:43;19.40;41.80
35680;DHT22;21803;53.586;10.040;2023-04-03T13:04:43;19.30;41.60
35680;DHT22;21803;53.586;10.040;2023-04-03T13:07:32;19.30;41.50
35680;DHT22;21803;53.586;10.040;2023-04-03T13:12:33;19.30;41.40
35680;DHT22;21803;53.586;10.040;2023-04-03T13:15:02;19.30;41.50
35680;DHT22;21803;53.586;10.040;2023-04-03T13:17:30;19.30;41.50
35680;DHT22;21803;53.586;10.040;2023-04-03T13:20:14;19.30;41.40
35680;DHT22;21803;53.586;10.040;2023-04-03T13:22:52;19.30;41.40
35680;DHT22;21803;53.586;10.040;2023-04-03T13:25:21;19.30;41.30
35680;DHT22;21803;53.586;10.040;2023-04-03T13:27:48;19.30;41.30
35680;DHT22;21803;53.586;10.040;2023-04-03T13:30:35;19.30;41.30
35680;DHT22;21803;53.586;10.040;2023-04-03T13:33:05;19.30;41.40
35680;DHT22;21803;53.586;10.040;2023-04-03T13:35:39;19.30;41.30
35680;DHT22;21803;53.586;10.040;2023-04-03T13:38:23;19.30;41.20
35680;DHT22;21803;53.586;10.040;2023-04-03T13:41:01;19.30;41.20
35680;DHT22;21803;53.586;10.040;2023-04-03T13:43:36;19.30;41.20
35680;DHT22;21803;53.586;10.040;2023-04-03T13:48:45;19.30;41.00
35680;DHT22;21803;53.586;10.040;2023-04-03T13:53:55;19.30;42.30
35680;DHT22;21803;53.586;10.040;2023-04-03T13:56:35;19.40;43.40
35680;DHT22;21803;53.586;10.040;2023-04-03T14:01:52;19.50;42.80
35680;DHT22;21803;53.586;10.040;2023-04-03T14:04:24;19.50;42.10
35680;DHT22;21803;53.586;10.040;2023-04-03T14:06:50;19.50;41.90
35680;DHT22;21803;53.586;10.040;2023-04-03T14:09:18;19.50;41.90
35680;DHT22;21803;53.586;10.040;2023-04-03T14:11:43;19.50;41.90
35680;DHT22;21803;53.586;10.040;2023-04-03T14:14:20;19.60;42.00
35680;DHT22;21803;53.586;10.040;2023-04-03T14:16:51;19.60;41.90
35680;DHT22;21803;53.586;10.040;2023-04-03T14:19:35;19.60;41.90
35680;DHT22;21803;53.586;10.040;2023-04-03T14:22:13;19.60;41.90
35680;DHT22;21803;53.586;10.040;2023-04-03T14:24:39;19.60;41.90
35680;DHT22;21803;53.586;10.040;2023-04-03T14:27:16;19.60;42.00
35680;DHT22;21803;53.586;10.040;2023-04-03T14:29:42;19.60;41.90
35680;DHT22;21803;53.586;10.040;2023-04-03T14:32:12;19.70;42.00
35680;DHT22;21803;53.586;10.040;2023-04-03T14:34:38;19.70;42.00
35680;DHT22;21803;53.586;10.040;2023-04-03T14:37:05;19.70;42.00
35680;DHT22;21803;53.586;10.040;2023-04-03T14:39:31;19.70;42.00
35680;DHT22;21803;53.586;10.040;2023-04-03T14:41:56;19.70;42.10
35680;DHT22;21803;53.586;10.040;2023-04-03T14:44:22;19.70;42.10
35680;DHT22;21803;53.586;10.040;2023-04-03T14:46:48;19.80;42.20
35680;DHT22;21803;53.586;10.040;2023-04-03T14:49:16;19.70;42.10
35680;DHT22;21803;53.586;10.040;2023-04-03T14:51:43;19.80;42.20
35680;DHT22;21803;53.586;10.040;2023-04-03T14:54:17;19.80;42.20
35680;DHT22;21803;53.586;10.040;2023-04-03T14:56:44;19.80;42.20
35680;DHT22;21803;53.586;10.040;2023-04-03T14:59:11;19.80;42.10
35680;DHT22;21803;53.586;10.040;2023-04-03T15:01:37;19.80;42.10
35680;DHT22;21803;53.586;10.040;2023-04-03T15:04:13;19.90;42.10
35680;DHT22;21803;53.586;10.040;2023-04-03T15:06:39;19.80;42.00
35680;DHT22;21803;53.586;10.040;2023-04-03T15:09:17;19.80;42.00
35680;DHT22;21803;53.586;10.040;2023-04-03T15:11:43;19.80;42.00
35680;DHT22;21803;53.586;10.040;2023-04-03T15:14:10;19.80;41.90
35680;DHT22;21803;53.586;10.040;2023-04-03T15:16:35;19.80;41.90
35680;DHT22;21803;53.586;10.040;2023-04-03T15:19:01;19.80;41.90
35680;DHT22;21803;53.586;10.040;2023-04-03T15:21:27;19.80;41.90
35680;DHT22;21803;53.586;10.040;2023-04-03T15:23:52;19.80;41.80
35680;DHT22;21803;53.586;10.040;2023-04-03T15:26:18;19.80;41.80
35680;DHT22;21803;53.586;10.040;2023-04-03T15:28:44;19.80;41.80
35680;DHT22;21803;53.586;10.040;2023-04-03T15:31:10;19.80;41.80
35680;DHT22;21803;53.586;10.040;2023-04-03T15:33:36;19.80;41.70
35680;DHT22;21803;53.586;10.040;2023-04-03T15:36:03;19.80;41.70
35680;DHT22;21803;53.586;10.040;2023-04-03T15:38:28;19.80;41.70
35680;DHT22;21803;53.586;10.040;2023-04-03T15:40:54;19.80;41.70
35680;DHT22;21803;53.586;10.040;2023-04-03T15:43:20;19.80;41.70
35680;DHT22;21803;53.586;10.040;2023-04-03T15:45:46;19.80;41.70
35680;DHT22;21803;53.586;10.040;2023-04-03T15:48:12;19.80;41.70
35680;DHT22;21803;53.586;10.040;2023-04-03T15:50:38;19.80;41.70
35680;DHT22;21803;53.586;10.040;2023-04-03T15:53:04;19.80;41.70
35680;DHT22;21803;53.586;10.040;2023-04-03T15:55:32;19.80;41.70
35680;DHT22;21803;53.586;10.040;2023-04-03T15:57:58;19.90;41.90
35680;DHT22;21803;53.586;10.040;2023-04-03T16:00:25;19.90;42.40
35680;DHT22;21803;53.586;10.040;2023-04-03T16:02:53;19.80;42.40
35680;DHT22;21803;53.586;10.040;2023-04-03T16:05:19;19.90;42.50
35680;DHT22;21803;53.586;10.040;2023-04-03T16:07:45;19.90;42.30
35680;DHT22;21803;53.586;10.040;2023-04-03T16:10:13;19.90;42.20
35680;DHT22;21803;53.586;10.040;2023-04-03T16:12:39;20.00;42.10
35680;DHT22;21803;53.586;10.040;2023-04-03T16:15:05;20.00;41.90
35680;DHT22;21803;53.586;10.040;2023-04-03T16:17:32;20.00;41.70
35680;DHT22;21803;53.586;10.040;2023-04-03T16:19:59;20.00;41.60
35680;DHT22;21803;53.586;10.040;2023-04-03T16:22:26;20.00;41.30
35680;DHT22;21803;53.586;10.040;2023-04-03T16:24:53;20.00;41.20
35680;DHT22;21803;53.586;10.040;2023-04-03T16:27:19;20.10;41.10
35680;DHT22;21803;53.586;10.040;2023-04-03T16:29:44;20.10;41.00
35680;DHT22;21803;53.586;10.040;2023-04-03T16:32:10;20.10;40.90
35680;DHT22;21803;53.586;10.040;2023-04-03T16:34:36;20.10;40.80
35680;DHT22;21803;53.586;10.040;2023-04-03T16:37:02;20.10;40.60
35680;DHT22;21803;53.586;10.040;2023-04-03T16:39:27;20.10;40.60
35680;DHT22;21803;53.586;10.040;2023-04-03T16:41:53;20.10;40.50
35680;DHT22;21803;53.586;10.040;2023-04-03T16:44:18;20.10;40.40
35680;DHT22;21803;53.586;10.040;2023-04-03T16:46:44;20.10;40.30
35680;DHT22;21803;53.586;10.040;2023-04-03T16:49:09;20.10;40.20
35680;DHT22;21803;53.586;10.040;2023-04-03T16:51:35;20.20;40.20
35680;DHT22;21803;53.586;10.040;2023-04-03T16:54:01;20.20;40.20
35680;DHT22;21803;53.586;10.040;2023-04-03T16:56:26;20.20;40.10
35680;DHT22;21803;53.586;10.040;2023-04-03T16:58:52;20.20;40.00
35680;DHT22;21803;53.586;10.040;2023-04-03T17:01:20;20.20;39.90
35680;DHT22;21803;53.586;10.040;2023-04-03T17:03:46;20.20;39.80
35680;DHT22;21803;53.586;10.040;2023-04-03T17:06:16;20.20;39.80
35680;DHT22;21803;53.586;10.040;2023-04-03T17:08:43;20.20;39.70
35680;DHT22;21803;53.586;10.040;2023-04-03T17:11:09;20.20;39.70
35680;DHT22;21803;53.586;10.040;2023-04-03T17:13:36;20.20;39.60
35680;DHT22;21803;53.586;10.040;2023-04-03T17:16:04;20.20;39.50
35680;DHT22;21803;53.586;10.040;2023-04-03T17:18:33;20.20;39.40
35680;DHT22;21803;53.586;10.040;2023-04-03T17:20:59;20.30;39.40
35680;DHT22;21803;53.586;10.040;2023-04-03T17:23:27;20.20;39.30
35680;DHT22;21803;53.586;10.040;2023-04-03T17:25:54;20.30;39.30
35680;DHT22;21803;53.586;10.040;2023-04-03T17:28:20;20.30;39.20
35680;DHT22;21803;53.586;10.040;2023-04-03T17:30:47;20.30;39.20
35680;DHT22;21803;53.586;10.040;2023-04-03T17:33:13;20.20;39.10
35680;DHT22;21803;53.586;10.040;2023-04-03T17:35:38;20.30;39.10
35680;DHT22;21803;53.586;10.040;2023-04-03T17:38:04;20.30;39.00
35680;DHT22;21803;53.586;10.040;2023-04-03T17:40:29;20.30;39.00
35680;DHT22;21803;53.586;10.040;2023-04-03T17:42:55;20.30;39.00
35680;DHT22;21803;53.586;10.040;2023-04-03T17:45:20;20.30;38.90
35680;DHT22;21803;53.586;10.040;2023-04-03T17:47:46;20.30;38.80
35680;DHT22;21803;53.586;10.040;2023-04-03T17:50:11;20.30;38.70
35680;DHT22;21803;53.586;10.040;2023-04-03T17:52:40;20.30;38.70
35680;DHT22;21803;53.586;10.040;2023-04-03T17:55:06;20.30;38.60
35680;DHT22;21803;53.586;10.040;2023-04-03T17:57:31;20.30;38.50
35680;DHT22;21803;53.586;10.040;2023-04-03T17:59:57;20.30;38.50
35680;DHT22;21803;53.586;10.040;2023-04-03T18:02:23;20.20;38.40
35680;DHT22;21803;53.586;10.040;2023-04-03T18:04:52;20.20;38.40
35680;DHT22;21803;53.586;10.040;2023-04-03T18:07:18;20.30;38.40
35680;DHT22;21803;53.586;10.040;2023-04-03T18:09:45;20.20;38.30
35680;DHT22;21803;53.586;10.040;2023-04-03T18:12:12;20.20;38.30
35680;DHT22;21803;53.586;10.040;2023-04-03T18:14:39;20.20;38.30
35680;DHT22;21803;53.586;10.040;2023-04-03T18:17:06;20.20;38.20
35680;DHT22;21803;53.586;10.040;2023-04-03T18:19:32;20.20;38.10
35680;DHT22;21803;53.586;10.040;2023-04-03T18:22:01;20.20;38.20
35680;DHT22;21803;53.586;10.040;2023-04-03T18:24:28;20.20;38.10
35680;DHT22;21803;53.586;10.040;2023-04-03T18:26:59;20.20;38.00
35680;DHT22;21803;53.586;10.040;2023-04-03T18:29:28;20.20;38.00
35680;DHT22;21803;53.586;10.040;2023-04-03T18:31:54;20.20;38.00
35680;DHT22;21803;53.586;10.040;2023-04-03T18:34:21;20.30;37.90
35680;DHT22;21803;53.586;10.040;2023-04-03T18:36:46;20.20;37.90
35680;DHT22;21803;53.586;10.040;2023-04-03T18:39:13;20.20;37.80
35680;DHT22;21803;53.586;10.040;2023-04-03T18:41:39;20.20;37.90
35680;DHT22;21803;53.586;10.040;2023-04-03T18:44:08;20.20;37.90
35680;DHT22;21803;53.586;10.040;2023-04-03T18:46:35;20.20;37.80
35680;DHT22;21803;53.586;10.040;2023-04-03T18:49:01;20.20;37.70
35680;DHT22;21803;53.586;10.040;2023-04-03T18:51:27;20.20;37.70
35680;DHT22;21803;53.586;10.040;2023-04-03T18:53:52;20.20;37.70
35680;DHT22;21803;53.586;10.040;2023-04-03T18:56:18;20.20;37.70
35680;DHT22;21803;53.586;10.040;2023-04-03T18:58:44;20.20;37.70
35680;DHT22;21803;53.586;10.040;2023-04-03T19:01:09;20.20;37.60
35680;DHT22;21803;53.586;10.040;2023-04-03T19:03:36;20.20;37.60
35680;DHT22;21803;53.586;10.040;2023-04-03T19:06:02;20.20;37.60
35680;DHT22;21803;53.586;10.040;2023-04-03T19:08:29;20.20;37.60
35680;DHT22;21803;53.586;10.040;2023-04-03T19:10:54;20.20;37.60
35680;DHT22;21803;53.586;10.040;2023-04-03T19:13:20;20.20;37.50
35680;DHT22;21803;53.586;10.040;2023-04-03T19:15:45;20.20;37.50
35680;DHT22;21803;53.586;10.040;2023-04-03T19:18:12;20.20;37.40
35680;DHT22;21803;53.586;10.040;2023-04-03T19:20:37;20.20;37.40
35680;DHT22;21803;53.586;10.040;2023-04-03T19:23:03;20.20;37.40
35680;DHT22;21803;53.586;10.040;2023-04-03T19:25:28;20.20;37.40
35680;DHT22;21803;53.586;10.040;2023-04-03T19:27:54;20.20;37.40
35680;DHT22;21803;53.586;10.040;2023-04-03T19:30:20;20.20;38.00
35680;DHT22;21803;53.586;10.040;2023-04-03T19:32:45;20.20;37.30
35680;DHT22;21803;53.586;10.040;2023-04-03T19:35:11;20.20;37.30
35680;DHT22;21803;53.586;10.040;2023-04-03T19:37:37;20.20;37.30
35680;DHT22;21803;53.586;10.040;2023-04-03T19:40:03;20.20;37.30
35680;DHT22;21803;53.586;10.040;2023-04-03T19:42:29;20.20;37.30
35680;DHT22;21803;53.586;10.040;2023-04-03T19:44:56;20.20;37.30
35680;DHT22;21803;53.586;10.040;2023-04-03T19:47:22;20.20;37.30
35680;DHT22;21803;53.586;10.040;2023-04-03T19:49:49;20.20;37.20
35680;DHT22;21803;53.586;10.040;2023-04-03T19:52:14;20.20;37.20
35680;DHT22;21803;53.586;10.040;2023-04-03T19:54:40;20.20;37.20
35680;DHT22;21803;53.586;10.040;2023-04-03T19:57:06;20.20;37.20
35680;DHT22;21803;53.586;10.040;2023-04-03T19:59:32;20.20;37.20
35680;DHT22;21803;53.586;10.040;2023-04-03T20:01:57;20.20;37.10
35680;DHT22;21803;53.586;10.040;2023-04-03T20:04:24;20.20;37.20
35680;DHT22;21803;53.586;10.040;2023-04-03T20:06:49;20.20;37.20
35680;DHT22;21803;53.586;10.040;2023-04-03T20:09:15;20.20;37.10
35680;DHT22;21803;53.586;10.040;2023-04-03T20:11:43;20.10;37.00
35680;DHT22;21803;53.586;10.040;2023-04-03T20:14:12;20.10;37.10
35680;DHT22;21803;53.586;10.040;2023-04-03T20:16:38;20.10;37.10
35680;DHT22;21803;53.586;10.040;2023-04-03T20:19:03;20.10;37.20
35680;DHT22;21803;53.586;10.040;2023-04-03T20:21:31;20.10;37.40
35680;DHT22;21803;53.586;10.040;2023-04-03T20:24:02;20.10;37.40
35680;DHT22;21803;53.586;10.040;2023-04-03T20:26:29;20.10;37.20
35680;DHT22;21803;53.586;10.040;2023-04-03T20:28:57;20.10;37.20
35680;DHT22;21803;53.586;10.040;2023-04-03T20:31:24;20.10;37.40
35680;DHT22;21803;53.586;10.040;2023-04-03T20:33:51;20.10;37.40
35680;DHT22;21803;53.586;10.040;2023-04-03T20:36:17;20.10;37.50
35680;DHT22;21803;53.586;10.040;2023-04-03T20:38:44;20.10;37.70
35680;DHT22;21803;53.586;10.040;2023-04-03T20:41:10;20.10;37.70
35680;DHT22;21803;53.586;10.040;2023-04-03T20:43:36;20.20;37.80
35680;DHT22;21803;53.586;10.040;2023-04-03T20:46:04;20.10;37.80
35680;DHT22;21803;53.586;10.040;2023-04-03T20:48:30;20.10;37.90
35680;DHT22;21803;53.586;10.040;2023-04-03T20:50:57;20.00;38.00
35680;DHT22;21803;53.586;10.040;2023-04-03T20:53:23;20.10;38.10
35680;DHT22;21803;53.586;10.040;2023-04-03T20:55:59;20.00;38.00
35680;DHT22;21803;53.586;10.040;2023-04-03T20:58:26;20.10;38.10
